sensor_id;sensor_type;location;lat;lon;timestamp;pressure;altitude;pressure_sealevel;temperature;humidity
61963;BME280;47927;42.646;23.096;2023-05-09T00:00:28;92359.03;;;12.16;65.79
61963;BME280;47927;42.646;23.096;2023-05-09T00:02:54;92387.47;;;12.28;66.17
61963;BME280;47927;42.646;23.096;2023-05-09T00:05:20;92296.25;;;11.98;65.06
61963;BME280;47927;42.646;23.096;2023-05-09T00:07:48;92366.09;;;12.12;66.52
61963;BME280;47927;42.646;23.096;2023-05-09T00:10:14;92369.50;;;12.19;66.06
61963;BME280;47927;42.646;23.096;2023-05-09T00:12:40;92376.88;;;12.69;64.81
61963;BME280;47927;42.646;23.096;2023-05-09T00:15:08;92383.03;;;13.12;63.12
61963;BME280;47927;42.646;23.096;2023-05-09T00:17:34;92372.56;;;13.12;62.67
61963;BME280;47927;42.646;23.096;2023-05-09T00:20:06;92293.50;;;12.46;62.90
61963;BME280;47927;42.646;23.096;2023-05-09T00:22:35;92342.53;;;12.70;62.87
61963;BME280;47927;42.646;23.096;2023-05-09T00:25:00;92316.06;;;12.83;61.95
61963;BME280;47927;42.646;23.096;2023-05-09T00:27:26;92327.41;;;13.30;60.57
61963;BME280;47927;42.646;23.096;2023-05-09T00:29:55;92365.56;;;13.49;60.34
61963;BME280;47927;42.646;23.096;2023-05-09T00:32:20;92362.59;;;13.72;59.48
61963;BME280;47927;42.646;23.096;2023-05-09T00:34:46;92300.06;;;13.09;59.89
61963;BME280;47927;42.646;23.096;2023-05-09T00:37:11;92319.19;;;13.28;59.79
61963;BME280;47927;42.646;23.096;2023-05-09T00:39:37;92358.84;;;13.58;59.54
61963;BME280;47927;42.646;23.096;2023-05-09T00:42:03;92344.25;;;13.43;60.05
61963;BME280;47927;42.646;23.096;2023-05-09T00:44:29;92357.56;;;12.98;60.86
61963;BME280;47927;42.646;23.096;2023-05-09T00:46:54;92358.34;;;13.06;61.12
61963;BME280;47927;42.646;23.096;2023-05-09T00:49:20;92335.53;;;13.03;60.26
61963;BME280;47927;42.646;23.096;2023-05-09T00:51:46;92318.13;;;12.41;61.33
61963;BME280;47927;42.646;23.096;2023-05-09T00:54:12;92355.63;;;12.77;61.07
61963;BME280;47927;42.646;23.096;2023-05-09T00:56:38;92353.28;;;12.58;61.84
61963;BME280;47927;42.646;23.096;2023-05-09T00:59:03;92361.72;;;12.26;62.89
61963;BME280;47927;42.646;23.096;2023-05-09T01:01:30;92355.97;;;12.06;63.56
61963;BME280;47927;42.646;23.096;2023-05-09T01:03:57;92340.50;;;12.39;62.01
61963;BME280;47927;42.646;23.096;2023-05-09T01:06:37;92351.69;;;12.36;62.47
61963;BME280;47927;42.646;23.096;2023-05-09T01:11:47;92342.06;;;11.88;64.18
61963;BME280;47927;42.646;23.096;2023-05-09T01:14:32;92344.53;;;12.25;62.88
61963;BME280;47927;42.646;23.096;2023-05-09T01:22:36;92244.56;;;11.14;63.82
61963;BME280;47927;42.646;23.096;2023-05-09T01:28:13;92309.28;;;11.46;63.61
61963;BME280;47927;42.646;23.096;2023-05-09T01:30:43;92351.19;;;12.16;62.57
61963;BME280;47927;42.646;23.096;2023-05-09T01:33:15;92332.69;;;12.46;60.79
61963;BME280;47927;42.646;23.096;2023-05-09T01:35:44;92354.00;;;12.51;62.03
61963;BME280;47927;42.646;23.096;2023-05-09T01:38:13;92306.13;;;12.33;61.79
61963;BME280;47927;42.646;23.096;2023-05-09T01:40:42;92350.97;;;12.46;63.15
61963;BME280;47927;42.646;23.096;2023-05-09T01:43:11;92350.00;;;12.72;62.86
61963;BME280;47927;42.646;23.096;2023-05-09T01:45:40;92361.25;;;12.83;62.23
61963;BME280;47927;42.646;23.096;2023-05-09T01:48:08;92316.69;;;12.58;62.27
61963;BME280;47927;42.646;23.096;2023-05-09T01:50:35;92350.31;;;11.97;65.49
61963;BME280;47927;42.646;23.096;2023-05-09T01:53:02;92228.41;;;10.57;66.75
61963;BME280;47927;42.646;23.096;2023-05-09T01:55:33;92362.50;;;11.82;66.13
61963;BME280;47927;42.646;23.096;2023-05-09T01:58:02;92279.41;;;11.36;65.64
61963;BME280;47927;42.646;23.096;2023-05-09T02:00:30;92322.66;;;11.89;64.99
61963;BME280;47927;42.646;23.096;2023-05-09T02:02:56;92367.53;;;12.64;62.78
61963;BME280;47927;42.646;23.096;2023-05-09T02:05:26;92334.00;;;12.11;63.60
61963;BME280;47927;42.646;23.096;2023-05-09T02:07:54;92361.84;;;12.51;63.23
61963;BME280;47927;42.646;23.096;2023-05-09T02:10:21;92352.44;;;12.40;63.37
61963;BME280;47927;42.646;23.096;2023-05-09T02:12:50;92361.66;;;12.96;61.41
61963;BME280;47927;42.646;23.096;2023-05-09T02:15:15;92272.41;;;12.03;61.93
61963;BME280;47927;42.646;23.096;2023-05-09T02:17:41;92361.53;;;12.64;62.06
61963;BME280;47927;42.646;23.096;2023-05-09T02:20:07;92359.31;;;12.73;61.65
61963;BME280;47927;42.646;23.096;2023-05-09T02:22:37;92313.34;;;12.58;61.00
61963;BME280;47927;42.646;23.096;2023-05-09T02:25:04;92363.53;;;12.19;63.18
61963;BME280;47927;42.646;23.096;2023-05-09T02:27:33;92365.94;;;11.90;64.18
61963;BME280;47927;42.646;23.096;2023-05-09T02:30:02;92372.59;;;12.36;63.43
61963;BME280;47927;42.646;23.096;2023-05-09T02:32:30;92375.94;;;11.81;65.16
61963;BME280;47927;42.646;23.096;2023-05-09T02:34:58;92294.81;;;11.56;64.97
61963;BME280;47927;42.646;23.096;2023-05-09T02:37:26;92351.56;;;12.14;63.86
61963;BME280;47927;42.646;23.096;2023-05-09T02:39:52;92370.31;;;12.30;64.01
61963;BME280;47927;42.646;23.096;2023-05-09T02:42:21;92282.63;;;11.74;63.61
61963;BME280;47927;42.646;23.096;2023-05-09T02:44:52;92348.78;;;12.51;62.32
61963;BME280;47927;42.646;23.096;2023-05-09T02:47:18;92371.22;;;12.56;62.32
61963;BME280;47927;42.646;23.096;2023-05-09T02:49:44;92341.66;;;12.45;61.98
61963;BME280;47927;42.646;23.096;2023-05-09T02:52:10;92365.28;;;12.70;61.69
61963;BME280;47927;42.646;23.096;2023-05-09T02:54:37;92380.31;;;12.91;61.21
61963;BME280;47927;42.646;23.096;2023-05-09T02:57:03;92382.56;;;12.89;61.13
61963;BME280;47927;42.646;23.096;2023-05-09T02:59:29;92385.97;;;13.00;61.04
61963;BME280;47927;42.646;23.096;2023-05-09T03:01:56;92371.28;;;12.74;61.49
61963;BME280;47927;42.646;23.096;2023-05-09T03:04:22;92385.59;;;12.98;61.41
61963;BME280;47927;42.646;23.096;2023-05-09T03:06:47;92384.78;;;12.90;61.42
61963;BME280;47927;42.646;23.096;2023-05-09T03:09:13;92349.31;;;12.89;60.95
61963;BME280;47927;42.646;23.096;2023-05-09T03:11:39;92389.78;;;13.24;60.65
61963;BME280;47927;42.646;23.096;2023-05-09T03:14:05;92320.25;;;12.18;62.49
61963;BME280;47927;42.646;23.096;2023-05-09T03:16:33;92397.34;;;12.60;63.06
61963;BME280;47927;42.646;23.096;2023-05-09T03:18:58;92399.00;;;12.96;62.25
61963;BME280;47927;42.646;23.096;2023-05-09T03:21:27;92392.69;;;13.01;61.39
61963;BME280;47927;42.646;23.096;2023-05-09T03:23:54;92252.31;;;12.14;60.64
61963;BME280;47927;42.646;23.096;2023-05-09T03:26:19;92399.47;;;13.13;60.14
61963;BME280;47927;42.646;23.096;2023-05-09T03:28:46;92370.25;;;12.93;60.21
61963;BME280;47927;42.646;23.096;2023-05-09T03:31:14;92365.34;;;12.81;60.50
61963;BME280;47927;42.646;23.096;2023-05-09T03:33:39;92417.38;;;13.14;60.84
61963;BME280;47927;42.646;23.096;2023-05-09T03:36:07;92389.69;;;12.99;61.07
61963;BME280;47927;42.646;23.096;2023-05-09T03:38:33;92366.09;;;12.81;61.71
61963;BME280;47927;42.646;23.096;2023-05-09T03:40:59;92370.25;;;12.93;61.49
61963;BME280;47927;42.646;23.096;2023-05-09T03:43:24;92377.38;;;13.03;61.21
61963;BME280;47927;42.646;23.096;2023-05-09T03:45:50;92419.38;;;13.42;61.33
61963;BME280;47927;42.646;23.096;2023-05-09T03:48:16;92393.84;;;13.11;61.45
61963;BME280;47927;42.646;23.096;2023-05-09T03:50:47;92359.03;;;12.85;61.54
61963;BME280;47927;42.646;23.096;2023-05-09T03:53:13;92422.31;;;12.50;64.44
61963;BME280;47927;42.646;23.096;2023-05-09T03:55:41;92420.53;;;12.61;64.75
61963;BME280;47927;42.646;23.096;2023-05-09T03:58:08;92368.00;;;12.22;64.72
61963;BME280;47927;42.646;23.096;2023-05-09T04:00:36;92387.63;;;12.57;64.38
61963;BME280;47927;42.646;23.096;2023-05-09T04:03:08;92419.00;;;12.60;65.13
61963;BME280;47927;42.646;23.096;2023-05-09T04:05:38;92419.16;;;12.85;65.12
61963;BME280;47927;42.646;23.096;2023-05-09T04:08:07;92367.69;;;12.27;65.14
61963;BME280;47927;42.646;23.096;2023-05-09T04:10:32;92424.00;;;12.87;64.81
61963;BME280;47927;42.646;23.096;2023-05-09T04:12:58;92428.72;;;12.63;65.51
61963;BME280;47927;42.646;23.096;2023-05-09T04:15:23;92367.16;;;12.73;63.86
61963;BME280;47927;42.646;23.096;2023-05-09T04:17:49;92412.88;;;13.00;63.89
61963;BME280;47927;42.646;23.096;2023-05-09T04:20:21;92312.16;;;12.41;64.08
61963;BME280;47927;42.646;23.096;2023-05-09T04:22:48;92415.41;;;12.79;64.46
61963;BME280;47927;42.646;23.096;2023-05-09T04:25:18;92345.34;;;11.81;65.16
61963;BME280;47927;42.646;23.096;2023-05-09T04:27:44;92427.31;;;12.18;66.01
61963;BME280;47927;42.646;23.096;2023-05-09T04:30:10;92392.47;;;11.96;66.05
61963;BME280;47927;42.646;23.096;2023-05-09T04:32:36;92361.59;;;12.05;65.00
61963;BME280;47927;42.646;23.096;2023-05-09T04:35:04;92406.66;;;13.27;62.58
61963;BME280;47927;42.646;23.096;2023-05-09T04:37:36;92416.84;;;14.53;59.30
61963;BME280;47927;42.646;23.096;2023-05-09T04:40:02;92423.38;;;15.22;57.54
61963;BME280;47927;42.646;23.096;2023-05-09T04:42:36;92422.66;;;16.85;54.42
61963;BME280;47927;42.646;23.096;2023-05-09T04:45:02;92389.78;;;17.35;50.41
61963;BME280;47927;42.646;23.096;2023-05-09T04:47:28;92403.56;;;17.73;49.46
61963;BME280;47927;42.646;23.096;2023-05-09T04:49:53;92406.75;;;18.39;48.56
61963;BME280;47927;42.646;23.096;2023-05-09T04:52:19;92420.88;;;18.72;47.82
61963;BME280;47927;42.646;23.096;2023-05-09T04:54:44;92388.03;;;18.97;45.55
61963;BME280;47927;42.646;23.096;2023-05-09T04:57:11;92411.75;;;19.56;44.04
61963;BME280;47927;42.646;23.096;2023-05-09T04:59:37;92398.53;;;19.00;44.51
61963;BME280;47927;42.646;23.096;2023-05-09T05:02:03;92433.31;;;19.75;43.35
61963;BME280;47927;42.646;23.096;2023-05-09T05:04:30;92380.09;;;18.77;43.87
61963;BME280;47927;42.646;23.096;2023-05-09T05:06:56;92414.09;;;17.43;46.73
61963;BME280;47927;42.646;23.096;2023-05-09T05:09:22;92431.16;;;16.59;49.22
61963;BME280;47927;42.646;23.096;2023-05-09T05:11:58;92388.50;;;16.40;49.85
61963;BME280;47927;42.646;23.096;2023-05-09T05:17:49;92428.09;;;15.60;52.99
61963;BME280;47927;42.646;23.096;2023-05-09T05:20:18;92353.75;;;15.03;53.05
61963;BME280;47927;42.646;23.096;2023-05-09T05:22:45;92352.81;;;14.40;54.56
61963;BME280;47927;42.646;23.096;2023-05-09T05:25:11;92427.91;;;15.22;53.65
61963;BME280;47927;42.646;23.096;2023-05-09T05:27:38;92394.63;;;15.01;54.12
61963;BME280;47927;42.646;23.096;2023-05-09T05:30:05;92428.63;;;16.03;51.36
61963;BME280;47927;42.646;23.096;2023-05-09T05:32:32;92435.94;;;16.26;51.39
61963;BME280;47927;42.646;23.096;2023-05-09T05:34:57;92432.75;;;15.27;53.34
61963;BME280;47927;42.646;23.096;2023-05-09T05:37:23;92423.38;;;16.03;52.21
61963;BME280;47927;42.646;23.096;2023-05-09T05:39:49;92409.97;;;19.13;44.20
61963;BME280;47927;42.646;23.096;2023-05-09T05:42:16;92413.09;;;22.91;36.75
61963;BME280;47927;42.646;23.096;2023-05-09T05:44:42;92437.66;;;25.10;31.64
61963;BME280;47927;42.646;23.096;2023-05-09T05:47:09;92433.63;;;28.15;27.66
61963;BME280;47927;42.646;23.096;2023-05-09T05:49:35;92444.84;;;27.31;27.72
61963;BME280;47927;42.646;23.096;2023-05-09T05:52:01;92440.03;;;26.48;29.16
61963;BME280;47927;42.646;23.096;2023-05-09T05:54:27;92444.84;;;27.31;27.49
61963;BME280;47927;42.646;23.096;2023-05-09T05:56:53;92455.53;;;27.31;27.75
61963;BME280;47927;42.646;23.096;2023-05-09T05:59:18;92429.69;;;27.66;27.52
61963;BME280;47927;42.646;23.096;2023-05-09T06:01:44;92416.84;;;28.00;25.47
61963;BME280;47927;42.646;23.096;2023-05-09T06:04:10;92439.97;;;27.05;27.46
61963;BME280;47927;42.646;23.096;2023-05-09T06:06:36;92407.41;;;28.05;26.22
61963;BME280;47927;42.646;23.096;2023-05-09T06:09:01;92419.38;;;28.24;26.08
61963;BME280;47927;42.646;23.096;2023-05-09T06:11:28;92409.72;;;27.38;27.08
61963;BME280;47927;42.646;23.096;2023-05-09T06:13:54;92441.22;;;28.17;26.52
61963;BME280;47927;42.646;23.096;2023-05-09T06:16:19;92390.91;;;26.21;27.95
61963;BME280;47927;42.646;23.096;2023-05-09T06:18:47;92344.72;;;28.32;24.84
61963;BME280;47927;42.646;23.096;2023-05-09T06:21:13;92435.13;;;28.52;25.08
61963;BME280;47927;42.646;23.096;2023-05-09T06:23:38;92426.88;;;28.55;25.76
61963;BME280;47927;42.646;23.096;2023-05-09T06:26:04;92433.47;;;29.36;24.36
61963;BME280;47927;42.646;23.096;2023-05-09T06:28:30;92420.88;;;27.51;26.09
61963;BME280;47927;42.646;23.096;2023-05-09T06:30:55;92401.13;;;27.63;26.26
61963;BME280;47927;42.646;23.096;2023-05-09T06:33:21;92439.81;;;30.17;23.66
61963;BME280;47927;42.646;23.096;2023-05-09T06:35:46;92389.59;;;31.76;22.01
61963;BME280;47927;42.646;23.096;2023-05-09T06:38:12;92426.06;;;31.61;21.05
61963;BME280;47927;42.646;23.096;2023-05-09T06:40:37;92436.97;;;31.29;21.34
61963;BME280;47927;42.646;23.096;2023-05-09T06:43:03;92428.38;;;29.64;22.67
61963;BME280;47927;42.646;23.096;2023-05-09T06:45:28;92420.75;;;26.92;25.69
61963;BME280;47927;42.646;23.096;2023-05-09T06:47:55;92446.75;;;26.01;27.85
61963;BME280;47927;42.646;23.096;2023-05-09T06:50:20;92396.91;;;27.42;25.48
61963;BME280;47927;42.646;23.096;2023-05-09T06:52:46;92434.81;;;28.29;25.77
61963;BME280;47927;42.646;23.096;2023-05-09T06:55:12;92429.69;;;28.46;25.44
61963;BME280;47927;42.646;23.096;2023-05-09T06:57:38;92432.94;;;29.32;24.05
61963;BME280;47927;42.646;23.096;2023-05-09T07:00:07;92377.97;;;29.48;23.86
61963;BME280;47927;42.646;23.096;2023-05-09T07:02:34;92417.88;;;30.24;22.93
61963;BME280;47927;42.646;23.096;2023-05-09T07:04:59;92414.38;;;28.47;26.10
61963;BME280;47927;42.646;23.096;2023-05-09T07:07:25;92353.56;;;28.79;24.04
61963;BME280;47927;42.646;23.096;2023-05-09T07:09:50;92428.47;;;28.12;25.40
61963;BME280;47927;42.646;23.096;2023-05-09T07:12:16;92424.19;;;27.16;27.27
61963;BME280;47927;42.646;23.096;2023-05-09T07:14:41;92427.25;;;30.03;23.46
61963;BME280;47927;42.646;23.096;2023-05-09T07:17:07;92434.13;;;30.41;22.39
61963;BME280;47927;42.646;23.096;2023-05-09T07:19:33;92433.56;;;29.21;23.36
61963;BME280;47927;42.646;23.096;2023-05-09T07:21:59;92438.28;;;29.32;23.23
61963;BME280;47927;42.646;23.096;2023-05-09T07:24:24;92426.28;;;30.80;22.13
61963;BME280;47927;42.646;23.096;2023-05-09T07:26:50;92430.50;;;32.31;21.13
61963;BME280;47927;42.646;23.096;2023-05-09T07:29:15;92437.34;;;29.35;22.83
61963;BME280;47927;42.646;23.096;2023-05-09T07:31:42;92422.53;;;30.24;22.13
61963;BME280;47927;42.646;23.096;2023-05-09T07:34:08;92432.97;;;30.53;21.62
61963;BME280;47927;42.646;23.096;2023-05-09T07:36:33;92415.78;;;28.62;23.36
61963;BME280;47927;42.646;23.096;2023-05-09T07:38:59;92433.75;;;28.77;23.44
61963;BME280;47927;42.646;23.096;2023-05-09T07:41:24;92432.66;;;28.48;24.08
61963;BME280;47927;42.646;23.096;2023-05-09T07:43:51;92428.25;;;28.86;23.88
61963;BME280;47927;42.646;23.096;2023-05-09T07:46:16;92436.22;;;29.68;22.35
61963;BME280;47927;42.646;23.096;2023-05-09T07:48:42;92427.38;;;30.19;22.07
61963;BME280;47927;42.646;23.096;2023-05-09T07:51:07;92429.94;;;28.13;23.94
61963;BME280;47927;42.646;23.096;2023-05-09T07:53:33;92381.22;;;27.35;24.63
61963;BME280;47927;42.646;23.096;2023-05-09T07:55:58;92373.00;;;26.85;25.51
61963;BME280;47927;42.646;23.096;2023-05-09T07:58:24;92414.34;;;23.96;29.98
61963;BME280;47927;42.646;23.096;2023-05-09T08:00:50;92360.25;;;25.22;27.92
61963;BME280;47927;42.646;23.096;2023-05-09T08:03:15;92422.16;;;24.40;29.59
61963;BME280;47927;42.646;23.096;2023-05-09T08:05:41;92388.19;;;23.19;31.40
61963;BME280;47927;42.646;23.096;2023-05-09T08:08:06;92411.13;;;22.69;32.43
61963;BME280;47927;42.646;23.096;2023-05-09T08:10:32;92411.31;;;20.92;34.67
61963;BME280;47927;42.646;23.096;2023-05-09T08:12:58;92369.38;;;19.80;36.79
61963;BME280;47927;42.646;23.096;2023-05-09T08:15:24;92427.91;;;20.80;35.46
61963;BME280;47927;42.646;23.096;2023-05-09T08:17:49;92405.84;;;23.57;31.25
61963;BME280;47927;42.646;23.096;2023-05-09T08:20:15;92405.75;;;23.92;30.38
61963;BME280;47927;42.646;23.096;2023-05-09T08:22:41;92417.97;;;26.05;28.59
61963;BME280;47927;42.646;23.096;2023-05-09T08:25:07;92400.19;;;24.49;29.28
61963;BME280;47927;42.646;23.096;2023-05-09T08:27:33;92403.00;;;24.05;29.20
61963;BME280;47927;42.646;23.096;2023-05-09T08:29:58;92438.28;;;25.05;28.49
61963;BME280;47927;42.646;23.096;2023-05-09T08:32:24;92420.94;;;24.91;29.52
61963;BME280;47927;42.646;23.096;2023-05-09T08:34:49;92355.50;;;26.84;26.39
61963;BME280;47927;42.646;23.096;2023-05-09T08:37:15;92411.66;;;28.11;25.19
61963;BME280;47927;42.646;23.096;2023-05-09T08:39:41;92412.53;;;25.90;27.15
61963;BME280;47927;42.646;23.096;2023-05-09T08:42:07;92387.72;;;23.96;30.03
61963;BME280;47927;42.646;23.096;2023-05-09T08:44:33;92383.25;;;23.84;30.57
61963;BME280;47927;42.646;23.096;2023-05-09T08:47:01;92406.44;;;23.30;31.49
61963;BME280;47927;42.646;23.096;2023-05-09T08:49:27;92419.06;;;22.82;32.79
61963;BME280;47927;42.646;23.096;2023-05-09T08:51:54;92398.78;;;23.63;32.45
61963;BME280;47927;42.646;23.096;2023-05-09T08:54:21;92424.81;;;24.31;29.36
61963;BME280;47927;42.646;23.096;2023-05-09T08:56:47;92351.00;;;23.19;32.17
61963;BME280;47927;42.646;23.096;2023-05-09T08:59:13;92410.59;;;25.20;30.28
61963;BME280;47927;42.646;23.096;2023-05-09T09:01:45;92400.56;;;26.19;27.57
61963;BME280;47927;42.646;23.096;2023-05-09T09:04:11;92404.81;;;27.21;26.58
61963;BME280;47927;42.646;23.096;2023-05-09T09:06:38;92396.84;;;25.83;28.22
61963;BME280;47927;42.646;23.096;2023-05-09T09:09:07;92412.78;;;25.40;28.56
61963;BME280;47927;42.646;23.096;2023-05-09T09:11:35;92398.47;;;23.30;31.72
61963;BME280;47927;42.646;23.096;2023-05-09T09:14:14;92383.19;;;21.92;34.21
61963;BME280;47927;42.646;23.096;2023-05-09T09:16:43;92404.56;;;23.93;31.91
61963;BME280;47927;42.646;23.096;2023-05-09T09:19:12;92395.16;;;24.97;29.75
61963;BME280;47927;42.646;23.096;2023-05-09T09:21:44;92393.44;;;23.54;31.47
61963;BME280;47927;42.646;23.096;2023-05-09T09:24:12;92384.78;;;24.62;31.48
61963;BME280;47927;42.646;23.096;2023-05-09T09:26:45;92430.97;;;24.68;30.94
61963;BME280;47927;42.646;23.096;2023-05-09T09:29:12;92368.53;;;22.13;34.09
61963;BME280;47927;42.646;23.096;2023-05-09T09:31:38;92400.38;;;22.13;35.32
61963;BME280;47927;42.646;23.096;2023-05-09T09:34:03;92399.44;;;22.19;34.64
61963;BME280;47927;42.646;23.096;2023-05-09T09:36:29;92406.31;;;22.04;34.95
61963;BME280;47927;42.646;23.096;2023-05-09T09:39:00;92427.59;;;20.91;35.91
61963;BME280;47927;42.646;23.096;2023-05-09T09:41:36;92401.72;;;21.41;36.50
61963;BME280;47927;42.646;23.096;2023-05-09T09:44:16;92402.09;;;22.19;34.55
61963;BME280;47927;42.646;23.096;2023-05-09T09:46:46;92412.81;;;21.77;35.01
61963;BME280;47927;42.646;23.096;2023-05-09T09:49:13;92347.50;;;20.74;36.90
61963;BME280;47927;42.646;23.096;2023-05-09T09:51:40;92403.41;;;20.43;38.36
61963;BME280;47927;42.646;23.096;2023-05-09T09:54:06;92416.31;;;20.74;37.02
61963;BME280;47927;42.646;23.096;2023-05-09T09:59:16;92417.66;;;20.33;37.51
61963;BME280;47927;42.646;23.096;2023-05-09T10:02:04;92393.03;;;20.82;37.38
61963;BME280;47927;42.646;23.096;2023-05-09T10:04:37;92397.94;;;21.12;36.79
61963;BME280;47927;42.646;23.096;2023-05-09T10:07:08;92408.25;;;19.63;39.05
61963;BME280;47927;42.646;23.096;2023-05-09T10:09:35;92384.69;;;20.83;37.98
61963;BME280;47927;42.646;23.096;2023-05-09T10:12:06;92298.31;;;19.49;38.69
61963;BME280;47927;42.646;23.096;2023-05-09T10:14:33;92389.53;;;19.74;39.86
61963;BME280;47927;42.646;23.096;2023-05-09T10:17:01;92345.97;;;17.99;42.95
61963;BME280;47927;42.646;23.096;2023-05-09T10:19:28;92347.50;;;17.15;44.80
61963;BME280;47927;42.646;23.096;2023-05-09T10:22:01;92399.69;;;18.09;43.62
61963;BME280;47927;42.646;23.096;2023-05-09T10:24:38;92386.13;;;18.97;41.73
61963;BME280;47927;42.646;23.096;2023-05-09T10:27:14;92367.75;;;20.02;40.58
61963;BME280;47927;42.646;23.096;2023-05-09T10:29:50;92411.50;;;19.71;39.34
61963;BME280;47927;42.646;23.096;2023-05-09T10:32:22;92386.09;;;19.93;38.93
61963;BME280;47927;42.646;23.096;2023-05-09T10:34:53;92369.22;;;19.71;38.87
61963;BME280;47927;42.646;23.096;2023-05-09T10:37:22;92275.06;;;18.88;38.09
61963;BME280;47927;42.646;23.096;2023-05-09T10:39:48;92392.25;;;19.70;38.68
61963;BME280;47927;42.646;23.096;2023-05-09T10:42:18;92275.81;;;18.88;39.02
61963;BME280;47927;42.646;23.096;2023-05-09T10:44:45;92341.31;;;19.33;38.17
61963;BME280;47927;42.646;23.096;2023-05-09T10:47:11;92368.47;;;20.81;36.45
61963;BME280;47927;42.646;23.096;2023-05-09T10:49:37;92361.59;;;20.38;36.29
61963;BME280;47927;42.646;23.096;2023-05-09T10:52:03;92363.19;;;20.03;37.98
61963;BME280;47927;42.646;23.096;2023-05-09T10:54:30;92366.34;;;20.14;37.81
61963;BME280;47927;42.646;23.096;2023-05-09T10:56:59;92367.13;;;20.89;37.50
61963;BME280;47927;42.646;23.096;2023-05-09T10:59:33;92380.72;;;19.97;37.24
61963;BME280;47927;42.646;23.096;2023-05-09T11:02:03;92404.34;;;18.92;38.68
61963;BME280;47927;42.646;23.096;2023-05-09T11:04:30;92335.97;;;19.17;38.75
61963;BME280;47927;42.646;23.096;2023-05-09T11:06:58;92386.28;;;19.10;38.90
61963;BME280;47927;42.646;23.096;2023-05-09T11:09:37;92358.47;;;17.95;42.13
61963;BME280;47927;42.646;23.096;2023-05-09T11:14:42;92306.22;;;16.74;42.88
61963;BME280;47927;42.646;23.096;2023-05-09T11:24:38;92362.78;;;17.27;44.01
61963;BME280;47927;42.646;23.096;2023-05-09T11:27:24;92292.75;;;16.72;44.05
61963;BME280;47927;42.646;23.096;2023-05-09T11:29:56;92354.53;;;16.95;44.71
61963;BME280;47927;42.646;23.096;2023-05-09T11:32:26;92363.47;;;17.01;44.37
61963;BME280;47927;42.646;23.096;2023-05-09T11:35:05;92376.53;;;16.36;46.19
61963;BME280;47927;42.646;23.096;2023-05-09T11:37:31;92363.78;;;16.34;46.08
61963;BME280;47927;42.646;23.096;2023-05-09T11:40:00;92293.84;;;15.54;46.76
61963;BME280;47927;42.646;23.096;2023-05-09T11:42:27;92386.16;;;15.45;46.36
61963;BME280;47927;42.646;23.096;2023-05-09T11:44:55;92372.22;;;14.78;49.07
61963;BME280;47927;42.646;23.096;2023-05-09T11:47:21;92368.94;;;15.41;48.84
61963;BME280;47927;42.646;23.096;2023-05-09T11:49:47;92367.50;;;15.33;49.08
61963;BME280;47927;42.646;23.096;2023-05-09T11:52:13;92292.88;;;14.53;49.67
61963;BME280;47927;42.646;23.096;2023-05-09T11:54:39;92360.06;;;15.13;49.10
61963;BME280;47927;42.646;23.096;2023-05-09T11:57:05;92249.28;;;14.84;48.01
61963;BME280;47927;42.646;23.096;2023-05-09T11:59:32;92378.22;;;15.53;48.18
61963;BME280;47927;42.646;23.096;2023-05-09T12:02:05;92363.97;;;16.13;47.29
61963;BME280;47927;42.646;23.096;2023-05-09T12:04:32;92338.78;;;16.15;47.26
61963;BME280;47927;42.646;23.096;2023-05-09T12:06:58;92342.53;;;15.69;48.38
61963;BME280;47927;42.646;23.096;2023-05-09T12:09:34;92360.09;;;15.76;48.90
61963;BME280;47927;42.646;23.096;2023-05-09T12:12:10;92369.88;;;16.24;47.56
61963;BME280;47927;42.646;23.096;2023-05-09T12:14:36;92372.25;;;15.52;49.30
61963;BME280;47927;42.646;23.096;2023-05-09T12:17:03;92370.78;;;15.47;48.15
61963;BME280;47927;42.646;23.096;2023-05-09T12:19:28;92360.09;;;15.76;49.85
61963;BME280;47927;42.646;23.096;2023-05-09T12:21:55;92366.00;;;15.91;47.59
61963;BME280;47927;42.646;23.096;2023-05-09T12:24:24;92322.91;;;15.25;48.35
61963;BME280;47927;42.646;23.096;2023-05-09T12:26:53;92358.56;;;15.23;50.50
61963;BME280;47927;42.646;23.096;2023-05-09T12:29:20;92309.59;;;14.91;50.51
61963;BME280;47927;42.646;23.096;2023-05-09T12:31:47;92361.84;;;15.34;49.92
61963;BME280;47927;42.646;23.096;2023-05-09T12:34:13;92353.00;;;15.07;51.04
61963;BME280;47927;42.646;23.096;2023-05-09T12:36:39;92303.75;;;15.32;48.79
61963;BME280;47927;42.646;23.096;2023-05-09T12:39:09;92338.47;;;14.84;51.28
61963;BME280;47927;42.646;23.096;2023-05-09T12:41:41;92346.59;;;15.15;50.82
61963;BME280;47927;42.646;23.096;2023-05-09T12:44:07;92295.53;;;15.26;50.42
61963;BME280;47927;42.646;23.096;2023-05-09T12:46:33;92315.66;;;15.47;49.51
61963;BME280;47927;42.646;23.096;2023-05-09T12:48:59;92279.84;;;15.71;48.01
61963;BME280;47927;42.646;23.096;2023-05-09T12:51:24;92328.38;;;16.05;46.92
61963;BME280;47927;42.646;23.096;2023-05-09T12:53:50;92322.44;;;16.35;47.42
61963;BME280;47927;42.646;23.096;2023-05-09T12:56:20;92327.88;;;16.17;47.60
61963;BME280;47927;42.646;23.096;2023-05-09T12:58:52;92327.09;;;16.20;46.83
61963;BME280;47927;42.646;23.096;2023-05-09T13:01:19;92270.81;;;15.24;48.44
61963;BME280;47927;42.646;23.096;2023-05-09T13:03:50;92314.69;;;15.79;48.67
61963;BME280;47927;42.646;23.096;2023-05-09T13:06:16;92251.34;;;15.18;49.84
61963;BME280;47927;42.646;23.096;2023-05-09T13:08:42;92287.63;;;15.86;49.00
61963;BME280;47927;42.646;23.096;2023-05-09T13:11:10;92266.84;;;16.36;47.40
61963;BME280;47927;42.646;23.096;2023-05-09T13:13:41;92253.22;;;16.11;47.15
61963;BME280;47927;42.646;23.096;2023-05-09T13:16:07;92280.59;;;16.13;47.21
61963;BME280;47927;42.646;23.096;2023-05-09T13:18:32;92314.91;;;16.71;47.07